Time;durP1;ratioP1;P1;durP2;ratioP2;P2;SDS_P1;SDS_P2;PMS_P1;PMS_P2;Temp;Humidity;BMP_temperature;BMP_pressure;BME280_temperature;BME280_humidity;BME280_pressure;Samples;Min_cycle;Max_cycle;Signal;HPM_P1;HPM_P2
2021/08/23 00:00:39;;;;;;;7.40;3.20;;;13.00;98.00;;;;;;5074463;28;20124;-73
2021/08/23 00:03:05;;;;;;;5.93;2.95;;;13.00;98.00;;;;;;5074021;28;20031;-73
2021/08/23 00:05:34;;;;;;;5.60;3.13;;;13.10;98.00;;;;;;5072955;28;20021;-73
2021/08/23 00:08:00;;;;;;;6.05;3.42;;;13.10;98.00;;;;;;5073462;28;20041;-73
2021/08/23 00:10:26;;;;;;;5.93;2.70;;;13.10;98.00;;;;;;5072897;28;20020;-72
2021/08/23 00:12:52;;;;;;;5.70;3.10;;;13.00;98.00;;;;;;5070341;28;20090;-73
2021/08/23 00:15:18;;;;;;;6.78;3.10;;;13.00;98.00;;;;;;5073165;28;20335;-72
2021/08/23 00:17:44;;;;;;;5.63;2.95;;;13.00;98.00;;;;;;5073369;28;20064;-73
2021/08/23 00:20:13;;;;;;;6.78;3.13;;;12.90;98.00;;;;;;5074192;28;20032;-73
2021/08/23 00:22:47;;;;;;;7.75;3.17;;;12.90;98.00;;;;;;5072476;28;20032;-73
2021/08/23 00:25:16;;;;;;;6.22;3.50;;;12.80;98.00;;;;;;5073437;28;20047;-73
2021/08/23 00:27:42;;;;;;;7.65;2.80;;;12.70;98.00;;;;;;5071088;28;20032;-73
2021/08/23 00:30:10;;;;;;;5.68;3.00;;;12.80;98.00;;;;;;5071423;28;20119;-72
2021/08/23 00:32:36;;;;;;;6.93;2.83;;;12.90;98.00;;;;;;5071978;28;20044;-73
2021/08/23 00:35:02;;;;;;;6.82;3.22;;;12.90;98.00;;;;;;5072806;28;20017;-72
2021/08/23 00:37:28;;;;;;;6.47;3.10;;;12.90;98.00;;;;;;5071196;28;20059;-73
2021/08/23 00:39:53;;;;;;;7.85;2.85;;;12.90;98.00;;;;;;5073598;28;20040;-73
2021/08/23 00:42:19;;;;;;;5.68;3.05;;;13.00;98.00;;;;;;5071454;28;20025;-73
2021/08/23 00:44:45;;;;;;;7.00;2.90;;;13.00;98.00;;;;;;5073648;28;20039;-72
2021/08/23 00:47:11;;;;;;;6.90;3.20;;;12.90;98.00;;;;;;5071917;28;20487;-73
2021/08/23 00:49:38;;;;;;;5.53;3.15;;;12.90;98.00;;;;;;5073124;28;20415;-72
2021/08/23 00:52:06;;;;;;;8.90;3.70;;;12.90;98.00;;;;;;5072779;28;20027;-72
2021/08/23 00:54:32;;;;;;;5.68;3.05;;;12.90;98.00;;;;;;5071324;28;20029;-72
2021/08/23 00:56:58;;;;;;;5.10;2.75;;;13.00;98.00;;;;;;5068564;28;20383;-72
2021/08/23 00:59:28;;;;;;;9.23;3.30;;;13.10;98.00;;;;;;5072792;28;20115;-72
2021/08/23 01:02:03;;;;;;;8.05;3.55;;;13.10;98.00;;;;;;5070943;28;20017;-72
2021/08/23 01:04:42;;;;;;;9.43;3.28;;;13.10;98.00;;;;;;5071065;28;20033;-72
2021/08/23 01:07:13;;;;;;;6.47;2.78;;;13.10;98.00;;;;;;5072051;28;20044;-72
2021/08/23 01:09:42;;;;;;;7.72;3.03;;;13.10;98.00;;;;;;5073093;28;20029;-73
2021/08/23 01:12:10;;;;;;;7.00;3.42;;;13.10;98.00;;;;;;5070414;28;20037;-73
2021/08/23 01:14:37;;;;;;;6.45;2.70;;;13.10;98.00;;;;;;5070326;28;20028;-71
2021/08/23 01:17:04;;;;;;;8.85;3.30;;;13.10;98.00;;;;;;5070016;28;20032;-73
2021/08/23 01:19:31;;;;;;;7.25;3.47;;;13.10;98.00;;;;;;5070812;28;20055;-73
2021/08/23 01:21:59;;;;;;;6.65;2.78;;;13.00;98.00;;;;;;5071789;28;20436;-73
2021/08/23 01:24:32;;;;;;;7.72;2.65;;;12.90;98.00;;;;;;5071603;28;20071;-73
2021/08/23 01:27:01;;;;;;;5.80;2.67;;;13.00;98.00;;;;;;5068294;28;20321;-72
2021/08/23 01:29:29;;;;;;;7.25;2.65;;;13.10;98.00;;;;;;5070545;28;20032;-72
2021/08/23 01:32:17;;;;;;;7.57;3.00;;;13.20;98.00;;;;;;5068459;28;20415;-73
2021/08/23 01:34:44;;;;;;;4.45;2.70;;;13.30;98.00;;;;;;5069393;28;20429;-72
2021/08/23 01:37:14;;;;;;;7.43;2.90;;;13.40;98.00;;;;;;5073184;28;20098;-72
2021/08/23 01:39:40;;;;;;;5.18;2.60;;;13.30;98.00;;;;;;5071444;28;20032;-71
2021/08/23 01:42:06;;;;;;;4.38;2.25;;;13.30;98.00;;;;;;5070007;28;20037;-72
2021/08/23 01:44:32;;;;;;;7.68;2.92;;;13.20;98.00;;;;;;5071833;28;20031;-72
2021/08/23 01:46:58;;;;;;;6.28;2.70;;;13.30;98.00;;;;;;5070344;28;20029;-72
2021/08/23 01:49:24;;;;;;;6.00;2.65;;;13.30;98.00;;;;;;5071284;28;20066;-72
2021/08/23 01:51:49;;;;;;;6.90;2.50;;;13.40;98.00;;;;;;5069187;28;20028;-72
2021/08/23 01:54:15;;;;;;;5.32;2.38;;;13.40;98.00;;;;;;5071053;28;20429;-74
2021/08/23 01:56:41;;;;;;;8.05;3.00;;;13.40;98.00;;;;;;5069112;28;20031;-72
2021/08/23 01:59:07;;;;;;;5.25;2.28;;;13.40;98.00;;;;;;5071593;28;20425;-73
2021/08/23 02:01:34;;;;;;;6.43;2.80;;;13.40;98.00;;;;;;5070068;28;20052;-73
2021/08/23 02:04:05;;;;;;;6.15;2.70;;;13.40;98.00;;;;;;5069553;28;20035;-72
2021/08/23 02:06:34;;;;;;;5.70;2.40;;;13.40;98.00;;;;;;5069352;28;20032;-71
2021/08/23 02:08:59;;;;;;;8.02;2.60;;;13.40;98.00;;;;;;5069593;28;20036;-72
2021/08/23 02:11:25;;;;;;;4.90;2.40;;;13.40;98.00;;;;;;5068091;28;20044;-72
2021/08/23 02:13:54;;;;;;;4.60;2.50;;;13.50;98.00;;;;;;5069146;28;20017;-72
2021/08/23 02:16:21;;;;;;;7.38;2.70;;;13.40;98.00;;;;;;5070342;28;20032;-72
2021/08/23 02:18:47;;;;;;;5.78;2.55;;;13.50;98.00;;;;;;5069260;28;20068;-72
2021/08/23 02:21:19;;;;;;;5.93;2.38;;;13.50;98.00;;;;;;5070556;28;20032;-73
2021/08/23 02:23:46;;;;;;;5.25;2.60;;;13.50;98.00;;;;;;5069300;28;20329;-72
2021/08/23 02:26:15;;;;;;;5.63;2.30;;;13.60;98.00;;;;;;5068448;28;20036;-73
2021/08/23 02:28:40;;;;;;;4.40;2.20;;;13.60;98.00;;;;;;5068017;28;20068;-72
2021/08/23 02:31:06;;;;;;;4.97;2.35;;;13.60;98.00;;;;;;5066445;28;20134;-73
2021/08/23 02:33:32;;;;;;;6.22;2.60;;;13.60;98.00;;;;;;5065829;28;20423;-72
2021/08/23 02:35:57;;;;;;;7.55;2.35;;;13.60;98.00;;;;;;5069423;28;20036;-72
2021/08/23 02:38:23;;;;;;;7.22;3.22;;;13.60;98.00;;;;;;5070115;28;20073;-72
2021/08/23 02:40:53;;;;;;;6.82;2.72;;;13.70;98.00;;;;;;5068817;28;20028;-72
2021/08/23 02:43:19;;;;;;;5.82;2.50;;;13.60;98.00;;;;;;5069516;28;20358;-72
2021/08/23 02:45:44;;;;;;;6.93;2.50;;;13.70;98.00;;;;;;5070402;28;20103;-72
2021/08/23 02:48:13;;;;;;;7.75;2.60;;;13.70;98.00;;;;;;5071026;28;20433;-72
2021/08/23 02:50:39;;;;;;;4.95;2.45;;;13.70;98.00;;;;;;5071029;28;20029;-72
2021/08/23 02:53:04;;;;;;;4.45;2.30;;;13.80;98.00;;;;;;5069657;28;20029;-72
2021/08/23 02:55:30;;;;;;;4.80;2.50;;;13.80;98.00;;;;;;5071162;28;20090;-74
2021/08/23 02:57:56;;;;;;;4.40;2.33;;;13.80;98.00;;;;;;5068866;28;20563;-73
2021/08/23 03:00:21;;;;;;;8.68;2.75;;;13.70;98.00;;;;;;5070237;28;20040;-73
2021/08/23 03:02:47;;;;;;;5.35;2.55;;;13.70;98.00;;;;;;5069201;28;20056;-73
2021/08/23 03:05:13;;;;;;;6.50;2.30;;;13.70;98.00;;;;;;5069949;28;20040;-73
2021/08/23 03:07:38;;;;;;;5.65;2.50;;;13.70;98.00;;;;;;5070387;28;20044;-73
2021/08/23 03:10:05;;;;;;;5.38;2.28;;;13.80;98.00;;;;;;5071740;28;20021;-73
2021/08/23 03:12:30;;;;;;;4.68;2.80;;;13.70;98.00;;;;;;5070154;28;20031;-73
2021/08/23 03:14:56;;;;;;;6.82;3.05;;;13.70;98.00;;;;;;5072708;28;20020;-73
2021/08/23 03:17:22;;;;;;;4.88;2.15;;;13.70;98.00;;;;;;5070531;28;20032;-73
2021/08/23 03:19:47;;;;;;;6.30;2.80;;;13.70;98.00;;;;;;5072722;28;20044;-73
2021/08/23 03:22:13;;;;;;;6.75;2.42;;;13.60;98.00;;;;;;5073995;28;20112;-73
2021/08/23 03:24:39;;;;;;;6.05;2.50;;;13.60;98.00;;;;;;5074366;28;20033;-73
2021/08/23 03:27:04;;;;;;;9.75;2.47;;;13.70;98.00;;;;;;5072014;28;20020;-73
2021/08/23 03:29:30;;;;;;;6.15;2.67;;;13.70;98.00;;;;;;5072219;28;20025;-72
2021/08/23 03:31:56;;;;;;;5.85;2.40;;;13.70;98.00;;;;;;5072551;28;20090;-72
2021/08/23 03:34:21;;;;;;;5.97;2.38;;;13.70;98.00;;;;;;5073483;28;20021;-72
2021/08/23 03:36:47;;;;;;;7.85;2.42;;;13.70;98.00;;;;;;5074366;28;20029;-72
2021/08/23 03:39:16;;;;;;;4.15;2.13;;;13.60;98.00;;;;;;5072723;28;20329;-71
2021/08/23 03:41:42;;;;;;;5.20;2.20;;;13.60;98.00;;;;;;5072001;28;20320;-72
2021/08/23 03:44:08;;;;;;;7.13;2.60;;;13.60;98.00;;;;;;5074464;28;20115;-72
2021/08/23 03:46:33;;;;;;;5.47;2.90;;;13.70;98.00;;;;;;5073236;28;20032;-72
2021/08/23 03:49:00;;;;;;;6.13;2.65;;;13.60;98.00;;;;;;5073295;28;20432;-72
2021/08/23 03:51:27;;;;;;;7.43;2.58;;;13.70;98.00;;;;;;5075239;28;20043;-72
2021/08/23 03:53:53;;;;;;;6.65;2.53;;;13.60;98.00;;;;;;5072277;28;20060;-72
2021/08/23 03:56:19;;;;;;;5.05;2.83;;;13.60;98.00;;;;;;5073533;28;20056;-72
2021/08/23 03:58:44;;;;;;;6.68;2.60;;;13.60;98.00;;;;;;5072952;28;20020;-72
2021/08/23 04:01:10;;;;;;;6.47;2.40;;;13.50;98.00;;;;;;5071696;28;20040;-73
2021/08/23 04:03:35;;;;;;;5.80;2.42;;;13.50;98.00;;;;;;5068561;28;20032;-73
2021/08/23 04:06:01;;;;;;;6.05;2.63;;;13.50;98.00;;;;;;5071757;28;20037;-73
2021/08/23 04:08:27;;;;;;;6.22;2.67;;;13.50;98.00;;;;;;5073359;28;20044;-72
2021/08/23 04:10:53;;;;;;;3.75;2.28;;;13.50;98.00;;;;;;5073526;28;20032;-72
2021/08/23 04:13:18;;;;;;;6.05;2.88;;;13.50;98.00;;;;;;5072817;28;20155;-72
2021/08/23 04:15:47;;;;;;;5.47;2.60;;;13.60;98.00;;;;;;5072102;28;20056;-72
2021/08/23 04:18:13;;;;;;;4.85;2.50;;;13.50;98.00;;;;;;5072739;28;20036;-72
2021/08/23 04:20:39;;;;;;;6.18;2.53;;;13.50;98.00;;;;;;5073146;28;20035;-72
2021/08/23 04:23:05;;;;;;;7.47;2.63;;;13.50;98.00;;;;;;5073209;28;20032;-71
2021/08/23 04:25:30;;;;;;;5.07;2.50;;;13.50;98.00;;;;;;5072849;28;20036;-72
2021/08/23 04:27:57;;;;;;;5.65;2.50;;;13.40;98.00;;;;;;5071678;28;20048;-74
2021/08/23 04:30:23;;;;;;;5.82;2.58;;;13.40;98.00;;;;;;5072515;28;20033;-72
2021/08/23 04:32:49;;;;;;;7.38;2.72;;;13.40;98.00;;;;;;5070619;28;20078;-73
2021/08/23 04:35:15;;;;;;;7.22;2.67;;;13.40;98.00;;;;;;5072285;28;20036;-71
2021/08/23 04:37:41;;;;;;;4.28;2.60;;;13.40;98.00;;;;;;5072412;28;20032;-72
2021/08/23 04:40:07;;;;;;;4.20;2.42;;;13.40;98.00;;;;;;5072930;28;20067;-72
2021/08/23 04:42:33;;;;;;;5.22;2.28;;;13.40;98.00;;;;;;5070397;28;20033;-72
2021/08/23 04:45:02;;;;;;;5.25;2.88;;;13.40;98.00;;;;;;5071216;28;20024;-73
2021/08/23 04:47:28;;;;;;;5.57;2.70;;;13.40;98.00;;;;;;5071835;28;20024;-72
2021/08/23 04:49:54;;;;;;;5.80;2.85;;;13.40;98.00;;;;;;5073480;28;20431;-73
2021/08/23 04:52:19;;;;;;;4.93;2.85;;;13.40;98.00;;;;;;5073412;28;20091;-73
2021/08/23 04:54:47;;;;;;;6.30;2.78;;;13.40;98.00;;;;;;5072696;28;20107;-73
2021/08/23 04:57:13;;;;;;;6.03;2.65;;;13.40;98.00;;;;;;5072517;28;20322;-73
2021/08/23 04:59:39;;;;;;;6.30;2.75;;;13.40;98.00;;;;;;5073633;28;20039;-72
2021/08/23 05:02:06;;;;;;;4.63;2.65;;;13.50;98.00;;;;;;5071274;28;20024;-73
2021/08/23 05:04:32;;;;;;;6.00;2.80;;;13.50;98.00;;;;;;5071978;28;20040;-72
2021/08/23 05:06:58;;;;;;;7.18;3.47;;;13.50;98.00;;;;;;5073061;28;20040;-73
2021/08/23 05:09:26;;;;;;;5.25;2.80;;;13.50;98.00;;;;;;5073422;28;20028;-72
2021/08/23 05:11:55;;;;;;;5.72;2.78;;;13.50;98.00;;;;;;5071160;28;20375;-72
2021/08/23 05:14:20;;;;;;;6.10;2.85;;;13.50;98.00;;;;;;5072132;28;20024;-73
2021/08/23 05:16:49;;;;;;;5.53;2.83;;;13.60;98.00;;;;;;5072029;28;20745;-74
2021/08/23 05:19:15;;;;;;;6.85;3.05;;;13.60;98.00;;;;;;5072228;28;20082;-74
2021/08/23 05:21:40;;;;;;;6.57;2.90;;;13.60;98.00;;;;;;5073060;28;20041;-73
2021/08/23 05:24:06;;;;;;;6.03;2.80;;;13.60;98.00;;;;;;5072199;28;20293;-74
2021/08/23 05:26:31;;;;;;;7.40;2.67;;;13.60;98.00;;;;;;5070471;28;20024;-73
2021/08/23 05:28:57;;;;;;;6.63;2.70;;;13.60;98.00;;;;;;5072040;28;20067;-73
2021/08/23 05:31:23;;;;;;;6.82;2.65;;;13.60;98.00;;;;;;5071916;28;20029;-73
2021/08/23 05:33:52;;;;;;;4.90;2.63;;;13.70;98.00;;;;;;5071518;28;20120;-73
2021/08/23 05:36:17;;;;;;;5.20;2.90;;;13.80;98.00;;;;;;5071844;28;20020;-73
2021/08/23 05:38:43;;;;;;;7.65;2.42;;;13.80;98.00;;;;;;5070123;28;20031;-73
2021/08/23 05:41:09;;;;;;;4.80;2.38;;;13.90;98.00;;;;;;5071237;28;20036;-73
2021/08/23 05:43:34;;;;;;;9.32;2.75;;;13.90;98.00;;;;;;5070035;28;20090;-73
2021/08/23 05:46:00;;;;;;;7.72;2.58;;;14.00;98.00;;;;;;5071409;28;20032;-73
2021/08/23 05:48:30;;;;;;;15.05;2.90;;;14.10;98.00;;;;;;5071708;28;20119;-73
2021/08/23 05:50:56;;;;;;;11.30;2.95;;;14.20;98.00;;;;;;5072323;28;20416;-75
2021/08/23 05:53:21;;;;;;;8.40;2.95;;;14.30;98.00;;;;;;5071225;28;20085;-72
2021/08/23 05:55:47;;;;;;;11.65;3.03;;;14.40;98.00;;;;;;5074852;28;20078;-72
2021/08/23 05:58:13;;;;;;;11.82;3.00;;;14.50;98.00;;;;;;5074785;28;20024;-73
2021/08/23 06:00:39;;;;;;;5.28;2.10;;;14.60;98.00;;;;;;5074714;28;20032;-75
2021/08/23 06:03:04;;;;;;;6.53;2.83;;;14.70;98.00;;;;;;5076170;28;20032;-71
2021/08/23 06:05:30;;;;;;;11.27;2.63;;;14.80;98.00;;;;;;5075534;28;20074;-72
2021/08/23 06:07:56;;;;;;;5.47;2.38;;;14.80;98.00;;;;;;5074552;28;20049;-73
2021/08/23 06:10:22;;;;;;;5.75;2.50;;;14.90;98.00;;;;;;5070365;28;20037;-73
2021/08/23 06:12:51;;;;;;;9.07;2.50;;;14.90;98.00;;;;;;5072754;28;20028;-73
2021/08/23 06:15:17;;;;;;;5.43;2.38;;;14.90;98.00;;;;;;5069708;28;20029;-73
2021/08/23 06:17:42;;;;;;;5.63;2.45;;;14.90;98.00;;;;;;5073551;28;20074;-73
2021/08/23 06:20:09;;;;;;;4.57;2.30;;;14.90;98.00;;;;;;5068715;28;20056;-72
2021/08/23 06:22:37;;;;;;;5.68;2.30;;;14.90;98.00;;;;;;5076661;28;20031;-73
2021/08/23 06:25:06;;;;;;;6.97;2.80;;;14.90;98.00;;;;;;5074902;28;20031;-72
2021/08/23 06:27:32;;;;;;;6.57;2.20;;;14.90;98.00;;;;;;5067884;28;20025;-72
2021/08/23 06:29:57;;;;;;;6.47;2.42;;;14.90;98.00;;;;;;5075561;28;20420;-73
2021/08/23 06:32:23;;;;;;;7.00;2.40;;;15.00;98.00;;;;;;5075669;28;20021;-73
2021/08/23 06:34:48;;;;;;;5.95;2.30;;;15.20;98.00;;;;;;5074098;28;20029;-73
2021/08/23 06:37:17;;;;;;;4.15;1.98;;;15.40;98.00;;;;;;5075914;28;20112;-73
2021/08/23 06:39:43;;;;;;;7.00;2.70;;;15.70;98.00;;;;;;5075553;28;20032;-73
2021/08/23 06:42:11;;;;;;;6.53;2.47;;;15.90;98.00;;;;;;5071679;28;20066;-73
2021/08/23 06:44:40;;;;;;;5.57;2.38;;;16.10;97.50;;;;;;5073440;28;20036;-73
2021/08/23 06:47:06;;;;;;;5.15;2.38;;;16.30;97.00;;;;;;5075703;28;20027;-73
2021/08/23 06:49:31;;;;;;;4.43;2.28;;;16.30;96.70;;;;;;5075578;28;20322;-73
2021/08/23 06:51:57;;;;;;;8.25;2.35;;;16.20;97.00;;;;;;5075517;28;20032;-73
2021/08/23 06:54:30;;;;;;;6.32;2.17;;;16.10;97.30;;;;;;5073872;28;20119;-73
2021/08/23 06:56:58;;;;;;;7.68;2.83;;;15.80;97.30;;;;;;5071149;28;20032;-73
2021/08/23 06:59:27;;;;;;;5.20;2.10;;;15.70;98.00;;;;;;5060367;28;20307;-72
2021/08/23 07:01:53;;;;;;;5.72;2.38;;;15.60;98.00;;;;;;5070363;28;20036;-73
2021/08/23 07:04:19;;;;;;;5.13;2.35;;;15.60;98.00;;;;;;5075316;28;20036;-73
2021/08/23 07:06:45;;;;;;;8.90;2.72;;;15.60;98.00;;;;;;5075498;28;20090;-73
2021/08/23 07:09:10;;;;;;;7.25;2.35;;;15.60;98.00;;;;;;5073849;28;20056;-73
2021/08/23 07:11:36;;;;;;;7.85;2.78;;;15.60;97.50;;;;;;5074070;28;20303;-72
2021/08/23 07:14:02;;;;;;;8.43;2.47;;;15.70;97.90;;;;;;5073378;28;20020;-73
2021/08/23 07:16:27;;;;;;;5.05;2.50;;;15.70;98.00;;;;;;5073064;28;20035;-73
2021/08/23 07:18:53;;;;;;;11.05;2.80;;;15.90;98.00;;;;;;5076072;28;20025;-73
2021/08/23 07:21:19;;;;;;;7.53;2.63;;;16.00;97.10;;;;;;5085621;28;20324;-73
2021/08/23 07:23:47;;;;;;;5.93;3.00;;;16.10;96.80;;;;;;5075556;28;20352;-73
2021/08/23 07:26:13;;;;;;;10.18;2.70;;;16.10;96.90;;;;;;5071613;28;20432;-73
2021/08/23 07:28:39;;;;;;;5.70;2.50;;;16.20;97.30;;;;;;5071829;28;20032;-73
2021/08/23 07:31:05;;;;;;;6.35;2.92;;;16.30;97.10;;;;;;5073837;28;20028;-73
2021/08/23 07:33:31;;;;;;;7.38;2.67;;;16.40;95.80;;;;;;5074868;28;20044;-72
2021/08/23 07:35:57;;;;;;;6.63;2.38;;;16.40;96.70;;;;;;5074342;28;20059;-73
2021/08/23 07:38:26;;;;;;;5.18;2.45;;;16.40;96.10;;;;;;5074970;28;20052;-73
2021/08/23 07:40:51;;;;;;;7.13;2.50;;;16.50;96.10;;;;;;5067860;28;20039;-73
2021/08/23 07:43:17;;;;;;;7.93;2.45;;;16.70;96.20;;;;;;5075307;28;20032;-73
2021/08/23 07:45:43;;;;;;;5.75;2.22;;;16.90;95.60;;;;;;5069950;28;20104;-73
2021/08/23 07:48:08;;;;;;;7.63;2.55;;;17.00;95.10;;;;;;5071884;28;20025;-73
2021/08/23 07:50:35;;;;;;;6.25;2.63;;;17.10;94.40;;;;;;5073130;28;20059;-73
2021/08/23 07:53:01;;;;;;;6.28;2.15;;;17.10;94.50;;;;;;5074939;28;20028;-73
2021/08/23 07:55:27;;;;;;;6.15;2.55;;;16.90;94.20;;;;;;5075467;28;20029;-73
2021/08/23 07:57:53;;;;;;;5.50;2.60;;;17.10;95.20;;;;;;5072480;28;20025;-73
2021/08/23 08:00:20;;;;;;;4.07;2.00;;;17.20;95.20;;;;;;5074365;28;20028;-73
2021/08/23 08:02:46;;;;;;;6.57;2.40;;;17.10;94.50;;;;;;5074417;28;20025;-72
2021/08/23 08:05:12;;;;;;;7.88;2.45;;;17.30;94.00;;;;;;5075249;28;20024;-73
2021/08/23 08:07:42;;;;;;;5.13;2.30;;;17.40;94.30;;;;;;5077461;28;20118;-73
2021/08/23 08:10:09;;;;;;;4.07;1.85;;;17.20;93.10;;;;;;5069389;28;20031;-73
2021/08/23 08:12:36;;;;;;;5.85;2.13;;;17.20;94.60;;;;;;5066235;28;20074;-73
2021/08/23 08:15:03;;;;;;;6.05;2.40;;;17.30;94.30;;;;;;5078383;28;20032;-73
2021/08/23 08:17:28;;;;;;;6.18;2.33;;;17.20;94.00;;;;;;5069169;28;20027;-73
2021/08/23 08:19:54;;;;;;;7.40;2.42;;;17.30;95.20;;;;;;5085272;28;20037;-73
2021/08/23 08:22:20;;;;;;;6.05;2.60;;;17.50;94.30;;;;;;5078323;28;20107;-73
2021/08/23 08:24:46;;;;;;;7.32;2.20;;;17.60;93.80;;;;;;5078486;28;20035;-73
2021/08/23 08:27:12;;;;;;;4.55;1.98;;;17.70;92.20;;;;;;5076574;28;20103;-73
2021/08/23 08:29:38;;;;;;;8.57;2.80;;;17.90;92.80;;;;;;5076613;28;20341;-73
2021/08/23 08:32:05;;;;;;;5.38;2.33;;;18.70;90.70;;;;;;5087314;28;20027;-73
2021/08/23 08:34:32;;;;;;;7.20;2.95;;;19.20;88.70;;;;;;5079829;28;20021;-73
2021/08/23 08:36:57;;;;;;;6.35;2.10;;;19.60;89.30;;;;;;5077398;28;20424;-73
2021/08/23 08:39:23;;;;;;;6.10;2.33;;;19.90;86.40;;;;;;5077116;28;20118;-72
2021/08/23 08:41:49;;;;;;;5.22;2.15;;;19.60;86.20;;;;;;5075890;28;20321;-72
2021/08/23 08:44:17;;;;;;;5.90;2.05;;;19.10;87.60;;;;;;5077482;28;20029;-73
2021/08/23 08:46:44;;;;;;;6.63;2.30;;;18.70;90.00;;;;;;5064589;28;20052;-73
2021/08/23 08:49:12;;;;;;;5.35;2.08;;;18.40;89.90;;;;;;5072791;28;20032;-73
2021/08/23 08:51:41;;;;;;;7.13;2.53;;;18.20;90.50;;;;;;5076493;28;20028;-72
2021/08/23 08:54:07;;;;;;;5.90;2.22;;;18.30;91.30;;;;;;5077286;28;20417;-73
2021/08/23 08:56:35;;;;;;;4.40;1.98;;;18.50;90.30;;;;;;5071100;28;20037;-72
2021/08/23 08:59:03;;;;;;;6.43;2.50;;;18.50;89.60;;;;;;5077221;28;20074;-72
2021/08/23 09:01:29;;;;;;;4.80;1.95;;;18.40;89.80;;;;;;5077169;28;20149;-73
2021/08/23 09:04:02;;;;;;;6.35;2.10;;;18.30;89.40;;;;;;5077566;28;20038;-73
2021/08/23 09:06:38;;;;;;;5.93;2.40;;;18.40;90.60;;;;;;5075636;28;20025;-73
2021/08/23 09:09:09;;;;;;;5.50;2.05;;;18.70;89.50;;;;;;5077507;28;20033;-73
2021/08/23 09:11:35;;;;;;;10.52;3.20;;;19.10;88.80;;;;;;5074572;28;20079;-73
2021/08/23 09:14:04;;;;;;;6.10;2.28;;;19.10;89.90;;;;;;5069018;28;20329;-72
2021/08/23 09:16:32;;;;;;;6.03;2.33;;;19.20;87.60;;;;;;5072791;28;20095;-73
2021/08/23 09:18:58;;;;;;;4.97;2.30;;;19.10;87.50;;;;;;5076477;28;20031;-73
2021/08/23 09:21:29;;;;;;;5.55;2.40;;;20.00;86.50;;;;;;5072795;28;20428;-73
2021/08/23 09:23:58;;;;;;;6.25;2.70;;;20.30;84.40;;;;;;5082986;28;20020;-73
2021/08/23 09:26:29;;;;;;;9.82;2.40;;;20.10;84.10;;;;;;5082238;28;20024;-73
2021/08/23 09:28:58;;;;;;;4.22;2.00;;;20.00;85.60;;;;;;5075647;28;20427;-73
2021/08/23 09:31:32;;;;;;;5.57;2.15;;;20.30;83.80;;;;;;5077717;28;20028;-72
2021/08/23 09:34:00;;;;;;;4.03;1.83;;;21.20;82.20;;;;;;5077393;28;20036;-73
2021/08/23 09:36:27;;;;;;;5.90;1.60;;;22.10;80.80;;;;;;5077442;28;20448;-72
2021/08/23 09:39:15;;;;;;;4.38;1.83;;;23.40;76.70;;;;;;5068549;28;20425;-72
2021/08/23 09:41:42;;;;;;;4.45;1.70;;;24.40;74.80;;;;;;5066888;28;20033;-73
2021/08/23 09:44:13;;;;;;;4.53;1.77;;;25.30;72.30;;;;;;5068816;28;20031;-73
2021/08/23 09:46:40;;;;;;;5.40;2.03;;;25.30;71.70;;;;;;5061556;28;20020;-73
2021/08/23 09:49:08;;;;;;;4.43;1.90;;;24.60;72.00;;;;;;5081322;28;20035;-72
2021/08/23 09:51:38;;;;;;;9.30;1.70;;;26.00;71.10;;;;;;5076122;28;20408;-72
2021/08/23 09:54:18;;;;;;;5.63;1.70;;;25.50;69.40;;;;;;5072527;28;20064;-72
2021/08/23 09:56:49;;;;;;;6.93;1.95;;;24.80;72.40;;;;;;5059883;28;20031;-72
2021/08/23 09:59:18;;;;;;;5.95;2.53;;;23.10;74.40;;;;;;5076145;28;20031;-72
2021/08/23 10:01:48;;;;;;;6.03;2.00;;;21.50;79.40;;;;;;5076423;28;20064;-72
2021/08/23 10:04:16;;;;;;;6.63;1.90;;;20.70;82.70;;;;;;5068581;28;20024;-72
2021/08/23 10:06:43;;;;;;;6.35;2.63;;;20.10;82.70;;;;;;5074674;28;20029;-73
2021/08/23 10:09:11;;;;;;;5.88;2.25;;;19.50;85.30;;;;;;5060527;28;20070;-73
2021/08/23 10:11:41;;;;;;;5.57;1.90;;;19.30;85.30;;;;;;5055536;28;20100;-73
2021/08/23 10:14:07;;;;;;;4.90;2.03;;;19.70;85.30;;;;;;5068052;28;20029;-72
2021/08/23 10:16:35;;;;;;;4.70;1.77;;;21.60;80.80;;;;;;5066969;28;20146;-73
2021/08/23 10:19:01;;;;;;;3.13;1.60;;;22.90;76.50;;;;;;5064643;28;20017;-73
2021/08/23 10:21:28;;;;;;;7.00;2.05;;;23.20;74.70;;;;;;5056702;28;20108;-74
2021/08/23 10:23:54;;;;;;;5.65;1.77;;;22.60;75.30;;;;;;5063150;28;20490;-72
2021/08/23 10:26:21;;;;;;;6.28;2.13;;;22.20;77.60;;;;;;5074700;28;20036;-74
2021/08/23 10:28:49;;;;;;;5.00;1.90;;;22.10;77.80;;;;;;5076158;28;20039;-72
2021/08/23 10:31:19;;;;;;;8.43;2.08;;;21.90;77.50;;;;;;5076136;28;20032;-72
2021/08/23 10:33:46;;;;;;;4.68;2.00;;;21.00;78.20;;;;;;5069062;28;20029;-72
2021/08/23 10:36:15;;;;;;;6.88;1.92;;;19.90;82.50;;;;;;5076464;28;20095;-72
2021/08/23 10:38:42;;;;;;;4.00;1.85;;;19.50;83.50;;;;;;5076421;28;20032;-73
2021/08/23 10:41:26;;;;;;;5.10;1.85;;;19.10;82.20;;;;;;5074279;28;20033;-72
2021/08/23 10:43:52;;;;;;;5.20;2.25;;;19.40;83.20;;;;;;5071769;28;20028;-72
2021/08/23 10:46:32;;;;;;;6.47;1.85;;;19.60;84.60;;;;;;5075108;28;20043;-72
2021/08/23 10:49:25;;;;;;;5.35;2.00;;;19.80;84.70;;;;;;5065470;28;20085;-72
2021/08/23 10:51:58;;;;;;;6.53;1.92;;;19.90;84.70;;;;;;5072262;28;20413;-73
2021/08/23 10:54:33;;;;;;;5.28;2.15;;;20.20;82.30;;;;;;5074075;28;20027;-72
2021/08/23 10:57:01;;;;;;;6.53;1.80;;;20.70;81.10;;;;;;5074794;28;20021;-72
2021/08/23 10:59:48;;;;;;;5.50;1.70;;;20.40;81.90;;;;;;5073865;28;20124;-72
2021/08/23 11:02:35;;;;;;;7.88;2.10;;;20.70;82.10;;;;;;5073779;28;20028;-74
2021/08/23 11:05:34;;;;;;;5.35;1.90;;;20.80;81.10;;;;;;5075254;28;20024;-72
2021/08/23 11:08:07;;;;;;;5.30;1.95;;;20.50;81.90;;;;;;5057713;28;20048;-72
2021/08/23 11:10:34;;;;;;;3.78;1.77;;;20.20;81.30;;;;;;5063644;28;20119;-73
2021/08/23 11:13:12;;;;;;;5.22;2.20;;;19.90;83.10;;;;;;5075080;28;20031;-72
2021/08/23 11:15:37;;;;;;;6.20;2.00;;;19.90;83.00;;;;;;5075738;28;20024;-72
2021/08/23 11:18:15;;;;;;;4.20;2.03;;;20.00;83.40;;;;;;5074847;28;20025;-72
2021/08/23 11:20:51;;;;;;;5.18;2.40;;;19.80;84.60;;;;;;5074045;28;20025;-72
2021/08/23 11:23:22;;;;;;;5.28;1.92;;;19.60;85.30;;;;;;5074220;28;20090;-73
2021/08/23 11:25:50;;;;;;;7.18;2.10;;;19.60;85.20;;;;;;5073556;28;20016;-73
2021/08/23 11:28:20;;;;;;;6.93;2.22;;;19.80;84.70;;;;;;5072169;28;20091;-73
2021/08/23 11:30:49;;;;;;;9.32;3.00;;;19.90;84.10;;;;;;5087050;28;20358;-72
2021/08/23 11:33:31;;;;;;;3.88;1.92;;;19.60;83.60;;;;;;5077418;28;20052;-73
2021/08/23 11:36:01;;;;;;;3.80;1.75;;;19.80;84.90;;;;;;5074342;28;20024;-72
2021/08/23 11:38:33;;;;;;;9.88;2.00;;;20.00;83.90;;;;;;5074550;28;20024;-72
2021/08/23 11:41:00;;;;;;;4.32;1.88;;;20.30;82.60;;;;;;5073270;28;20094;-72
2021/08/23 11:43:30;;;;;;;5.07;1.85;;;20.90;81.90;;;;;;5073834;28;20082;-72
2021/08/23 11:45:57;;;;;;;4.20;1.75;;;22.10;81.10;;;;;;5070282;28;20040;-72
2021/08/23 11:48:23;;;;;;;5.07;1.70;;;23.10;76.00;;;;;;5068291;28;20028;-73
2021/08/23 11:50:49;;;;;;;6.35;1.90;;;23.60;74.60;;;;;;5078885;28;20427;-72
2021/08/23 11:53:16;;;;;;;3.28;1.48;;;23.70;73.40;;;;;;5063536;28;20025;-72
2021/08/23 11:55:44;;;;;;;4.57;1.83;;;23.70;73.70;;;;;;5078195;28;20016;-73
2021/08/23 11:58:17;;;;;;;3.95;1.58;;;23.20;73.70;;;;;;5078259;28;20412;-73
2021/08/23 12:00:44;;;;;;;3.97;1.52;;;22.90;75.10;;;;;;5070832;28;20021;-73
2021/08/23 12:03:15;;;;;;;3.90;1.85;;;22.80;75.60;;;;;;5078224;28;20020;-73
2021/08/23 12:05:49;;;;;;;4.65;1.95;;;22.70;75.30;;;;;;5061423;28;20074;-73
2021/08/23 12:08:23;;;;;;;3.92;1.58;;;22.50;75.90;;;;;;5068113;28;20111;-73
2021/08/23 12:10:57;;;;;;;4.95;2.42;;;22.20;78.30;;;;;;5073659;28;20490;-73
2021/08/23 12:13:26;;;;;;;4.47;1.88;;;22.30;77.50;;;;;;5063193;28;20103;-73
2021/08/23 12:15:55;;;;;;;3.80;1.88;;;22.10;76.80;;;;;;5060541;28;20017;-73
2021/08/23 12:18:33;;;;;;;6.43;2.67;;;21.50;78.80;;;;;;5082150;28;20475;-72
2021/08/23 12:21:06;;;;;;;5.68;2.80;;;20.60;86.70;;;;;;5078617;28;20074;-73
2021/08/23 12:23:43;;;;;;;4.75;2.80;;;19.40;93.20;;;;;;5080722;28;20437;-73
2021/08/23 12:26:13;;;;;;;6.05;2.90;;;18.60;94.80;;;;;;5070296;28;20039;-71
2021/08/23 12:28:50;;;;;;;5.28;2.80;;;18.10;96.50;;;;;;5073763;28;20085;-73
2021/08/23 12:31:18;;;;;;;4.93;2.75;;;18.00;97.60;;;;;;5079917;28;20028;-72
2021/08/23 12:33:44;;;;;;;6.50;3.05;;;17.80;96.70;;;;;;5076139;28;20021;-73
2021/08/23 12:36:10;;;;;;;5.70;3.05;;;17.90;97.60;;;;;;5078088;28;20027;-72
2021/08/23 12:38:36;;;;;;;7.15;3.00;;;18.20;97.90;;;;;;5076232;28;20132;-73
2021/08/23 12:41:02;;;;;;;6.18;2.90;;;18.50;96.40;;;;;;5076749;28;20115;-73
2021/08/23 12:43:28;;;;;;;5.05;2.40;;;19.20;98.00;;;;;;5076153;28;20029;-72
2021/08/23 12:45:53;;;;;;;5.47;2.50;;;19.80;96.00;;;;;;5074722;28;20414;-73
2021/08/23 12:48:19;;;;;;;4.25;2.50;;;20.00;94.40;;;;;;5065503;28;20032;-74